createdAt,value
2023-03-30T00:02:05.508Z,53.72
2023-03-30T00:12:32.415Z,53.71
2023-03-30T00:22:58.170Z,53.65
2023-03-30T00:33:37.287Z,53.65
2023-03-30T00:44:10.933Z,53.73
2023-03-30T00:54:37.923Z,54.04
2023-03-30T01:05:06.523Z,53.84
2023-03-30T01:15:36.515Z,53.60
2023-03-30T01:26:30.771Z,53.80
2023-03-30T01:37:17.349Z,54.07
2023-03-30T01:47:51.528Z,54.25
2023-03-30T01:58:22.944Z,54.33
2023-03-30T02:08:51.512Z,54.49
2023-03-30T02:19:18.401Z,54.01
2023-03-30T02:29:46.518Z,53.91
2023-03-30T02:40:27.652Z,54.25
2023-03-30T02:51:02.361Z,54.56
2023-03-30T03:01:35.123Z,54.11
2023-03-30T03:12:01.241Z,54.25
2023-03-30T03:22:35.204Z,53.90
2023-03-30T03:33:01.384Z,54.16
2023-03-30T03:43:28.042Z,53.96
2023-03-30T03:53:54.164Z,54.74
2023-03-30T04:04:20.071Z,55.54
2023-03-30T04:14:46.398Z,55.26
2023-03-30T04:25:15.109Z,55.36
2023-03-30T04:35:40.722Z,55.75
2023-03-30T04:46:06.399Z,55.93
2023-03-30T04:56:32.284Z,56.06
2023-03-30T05:06:58.424Z,56.37
2023-03-30T05:17:24.338Z,56.61
2023-03-30T05:27:51.037Z,57.06
2023-03-30T05:38:17.490Z,57.16
2023-03-30T05:48:43.514Z,57.55
2023-03-30T05:59:09.272Z,57.68
2023-03-30T06:09:35.167Z,57.74
2023-03-30T06:20:01.305Z,58.23
2023-03-30T06:30:27.191Z,58.37
2023-03-30T06:40:53.063Z,58.30
2023-03-30T06:51:19.905Z,58.05
2023-03-30T07:01:46.365Z,57.59
2023-03-30T07:12:12.050Z,57.41
2023-03-30T07:22:38.692Z,56.87
2023-03-30T07:33:04.585Z,56.09
2023-03-30T07:43:31.330Z,55.25
2023-03-30T07:53:57.449Z,54.13
2023-03-30T08:04:26.579Z,52.79
2023-03-30T08:14:53.232Z,52.61
2023-03-30T08:25:19.688Z,51.56
2023-03-30T08:35:46.918Z,51.20
2023-03-30T08:46:16.670Z,50.64
2023-03-30T08:56:45.667Z,50.88
2023-03-30T09:07:18.812Z,51.13
2023-03-30T09:17:49.690Z,51.36
2023-03-30T09:28:23.969Z,51.21
2023-03-30T09:38:50.899Z,50.96
2023-03-30T09:49:18.915Z,50.95
2023-03-30T09:59:46.220Z,50.59
2023-03-30T10:10:30.266Z,50.20
2023-03-30T10:21:02.515Z,50.64
2023-03-30T10:31:28.852Z,50.81
2023-03-30T10:41:58.579Z,50.56
2023-03-30T10:52:43.099Z,50.67
2023-03-30T11:03:22.173Z,50.46
2023-03-30T11:13:53.485Z,50.10
2023-03-30T11:24:22.051Z,50.24
2023-03-30T11:35:02.205Z,50.55
2023-03-30T11:45:50.681Z,50.78
2023-03-30T11:56:19.362Z,51.30
2023-03-30T12:06:48.320Z,51.51
2023-03-30T12:17:26.972Z,51.28
2023-03-30T12:28:12.486Z,51.27
2023-03-30T12:38:46.365Z,51.02
2023-03-30T12:49:23.548Z,51.01
2023-03-30T13:00:09.696Z,50.95
2023-03-30T13:10:40.626Z,51.25
2023-03-30T13:21:21.700Z,51.35
2023-03-30T13:31:58.014Z,51.50
2023-03-30T13:42:45.279Z,51.85
2023-03-30T13:53:15.984Z,52.19
2023-03-30T14:03:44.950Z,52.56
2023-03-30T14:14:16.987Z,53.43
2023-03-30T14:24:59.255Z,54.92
2023-03-30T14:35:29.786Z,57.36
2023-03-30T14:45:58.866Z,59.67
2023-03-30T14:56:26.569Z,61.59
2023-03-30T15:06:53.117Z,62.88
2023-03-30T15:17:25.915Z,64.03
2023-03-30T15:27:56.500Z,64.65
2023-03-30T15:38:32.113Z,65.29
2023-03-30T15:48:59.978Z,65.74
2023-03-30T15:59:32.251Z,66.54
2023-03-30T16:09:58.929Z,67.48
2023-03-30T16:20:27.022Z,68.30
2023-03-30T16:30:56.899Z,69.17
2023-03-30T16:41:24.619Z,69.85
2023-03-30T16:51:51.637Z,70.43
2023-03-30T17:02:19.457Z,70.99
2023-03-30T17:12:46.177Z,71.49
2023-03-30T17:23:11.942Z,71.62
2023-03-30T17:33:37.613Z,71.26
2023-03-30T17:44:04.004Z,71.12
2023-03-30T17:54:30.298Z,71.31
2023-03-30T18:04:56.227Z,71.25
2023-03-30T18:15:25.442Z,70.98
2023-03-30T18:25:51.242Z,70.97
2023-03-30T18:36:19.286Z,70.76
2023-03-30T18:46:46.371Z,70.61
2023-03-30T18:57:13.084Z,70.37
2023-03-30T19:07:38.950Z,70.37
2023-03-30T19:18:05.262Z,70.52
2023-03-30T19:28:31.222Z,70.71
2023-03-30T19:38:56.974Z,71.30
2023-03-30T19:49:22.806Z,71.54
2023-03-30T19:59:48.723Z,71.71
2023-03-30T20:10:17.090Z,71.87
2023-03-30T20:20:43.180Z,71.65
2023-03-30T20:31:08.553Z,71.75
2023-03-30T20:41:38.414Z,71.63
2023-03-30T20:52:04.056Z,71.11
2023-03-30T21:02:31.432Z,71.11
2023-03-30T21:12:57.493Z,71.02
2023-03-30T21:23:25.539Z,70.85
2023-03-30T21:33:51.627Z,70.52
2023-03-30T21:44:17.240Z,70.25
2023-03-30T21:54:42.859Z,70.01
2023-03-30T22:05:09.861Z,69.83
2023-03-30T22:15:36.857Z,69.73
2023-03-30T22:26:03.122Z,69.68
2023-03-30T22:36:31.511Z,69.78
2023-03-30T22:46:57.480Z,69.85
2023-03-30T22:57:23.650Z,69.65
2023-03-30T23:07:50.598Z,69.51
2023-03-30T23:18:16.170Z,69.49
2023-03-30T23:28:43.379Z,69.40
2023-03-30T23:39:09.368Z,69.24
2023-03-30T23:49:35.139Z,68.85
